Time;durP1;ratioP1;P1;durP2;ratioP2;P2;SDS_P1;SDS_P2;PMS_P1;PMS_P2;Temp;Humidity;BMP_temperature;BMP_pressure;BME280_temperature;BME280_humidity;BME280_pressure;Samples;Min_cycle;Max_cycle;Signal;HPM_P1;HPM_P2
2021/12/09 00:01:32;;;;;;;7.55;2.90;;;2.70;99.90;;;1.87;100.00;96286.28;5044577;28;20073;-70
2021/12/09 00:04:06;;;;;;;17.80;3.83;;;2.70;99.90;;;1.83;100.00;96289.81;5017848;28;20045;-70
2021/12/09 00:06:35;;;;;;;10.80;2.80;;;2.70;99.90;;;1.85;100.00;96288.91;5042265;28;20103;-70
2021/12/09 00:09:10;;;;;;;10.02;2.22;;;2.60;99.90;;;1.83;100.00;96289.81;5032712;28;20073;-70
2021/12/09 00:11:46;;;;;;;16.42;3.40;;;2.60;99.90;;;1.74;100.00;96290.91;5026243;28;20132;-70
2021/12/09 00:14:23;;;;;;;14.35;3.15;;;2.60;99.90;;;1.68;100.00;96296.19;5030825;28;20042;-71
2021/12/09 00:16:52;;;;;;;14.43;3.80;;;2.50;99.90;;;1.43;100.00;96294.31;5031440;28;20124;-70
2021/12/09 00:19:20;;;;;;;21.77;5.35;;;2.40;99.90;;;1.15;100.00;96303.59;5036408;28;20188;-70
2021/12/09 00:21:48;;;;;;;17.42;3.85;;;2.30;99.90;;;1.22;100.00;96310.22;5028625;28;20406;-73
2021/12/09 00:24:15;;;;;;;13.40;4.78;;;2.30;99.90;;;1.24;100.00;96311.88;5022116;28;20181;-71
2021/12/09 00:26:44;;;;;;;21.55;7.45;;;2.30;99.90;;;1.21;100.00;96317.06;5024052;28;21064;-70
2021/12/09 00:29:14;;;;;;;21.08;9.13;;;2.30;99.90;;;0.95;100.00;96320.25;5026562;28;20065;-71
2021/12/09 00:31:42;;;;;;;20.20;8.38;;;2.20;99.90;;;1.01;100.00;96319.28;5023103;28;20049;-70
2021/12/09 00:34:10;;;;;;;22.88;7.65;;;2.20;99.90;;;1.06;100.00;96314.06;5028296;28;20120;-70
2021/12/09 00:36:42;;;;;;;17.73;6.15;;;2.10;99.90;;;0.99;100.00;96319.31;5033304;28;20474;-70
2021/12/09 00:39:11;;;;;;;20.60;6.22;;;2.00;99.90;;;1.02;100.00;96323.50;5032005;28;20144;-69
2021/12/09 00:41:39;;;;;;;16.23;5.38;;;2.00;99.90;;;0.98;100.00;96321.91;5031872;28;20132;-70
2021/12/09 00:44:07;;;;;;;33.00;8.70;;;2.00;99.90;;;0.93;100.00;96328.84;5027331;28;20053;-70
2021/12/09 00:46:35;;;;;;;23.55;8.88;;;2.00;99.90;;;0.70;100.00;96325.13;5031108;28;20555;-69
2021/12/09 00:49:02;;;;;;;23.17;7.18;;;2.00;99.90;;;0.81;100.00;96327.44;5025960;28;20084;-70
2021/12/09 00:51:29;;;;;;;25.35;8.10;;;2.00;99.90;;;0.80;100.00;96334.25;5027000;28;20076;-71
2021/12/09 00:53:57;;;;;;;16.55;5.80;;;1.90;99.90;;;0.92;100.00;96339.97;5029920;28;20053;-69
2021/12/09 00:56:24;;;;;;;12.52;4.10;;;1.90;99.90;;;1.04;100.00;96334.53;5028038;28;20503;-70
2021/12/09 00:58:53;;;;;;;17.77;5.30;;;2.00;99.90;;;1.20;100.00;96330.72;5025755;28;20129;-71
2021/12/09 01:01:20;;;;;;;17.98;5.03;;;2.10;99.90;;;1.32;100.00;96327.00;5032916;28;20136;-70
2021/12/09 01:03:49;;;;;;;17.70;5.47;;;2.10;99.90;;;1.30;100.00;96340.69;5032468;28;20045;-70
2021/12/09 01:06:16;;;;;;;16.48;5.50;;;2.30;99.90;;;1.35;100.00;96342.28;5031096;28;20073;-71
2021/12/09 01:08:45;;;;;;;18.20;5.10;;;2.30;99.90;;;1.51;100.00;96344.44;5029115;28;20144;-71
2021/12/09 01:11:14;;;;;;;13.35;4.57;;;2.40;99.90;;;1.51;100.00;96347.81;5031550;28;20129;-71
2021/12/09 01:13:42;;;;;;;17.15;5.43;;;2.40;99.90;;;1.57;100.00;96346.81;5029864;28;20107;-70
2021/12/09 01:16:10;;;;;;;26.15;5.32;;;2.40;99.90;;;1.61;100.00;96349.25;5031449;28;20141;-70
2021/12/09 01:18:40;;;;;;;13.43;4.35;;;2.40;99.90;;;1.57;100.00;96350.19;5028277;28;20128;-69
2021/12/09 01:21:09;;;;;;;16.83;5.55;;;2.40;99.90;;;1.22;100.00;96354.50;5013490;28;20132;-71
2021/12/09 01:23:37;;;;;;;16.75;5.03;;;2.30;99.90;;;1.36;100.00;96353.34;5024365;28;20459;-70
2021/12/09 01:26:06;;;;;;;12.20;4.95;;;2.30;99.90;;;1.28;100.00;96347.56;5029477;28;20140;-69
2021/12/09 01:29:01;;;;;;;12.90;3.92;;;2.20;99.90;;;1.20;100.00;96353.72;5027141;28;20097;-70
2021/12/09 01:31:30;;;;;;;21.65;6.90;;;2.20;99.90;;;1.01;100.00;96360.16;5038871;28;20506;-70
2021/12/09 01:34:01;;;;;;;24.60;7.78;;;2.10;99.90;;;0.69;100.00;96358.38;5033903;28;20160;-69
2021/12/09 01:36:37;;;;;;;24.98;7.72;;;1.90;99.90;;;0.57;100.00;96359.47;5030660;28;20136;-70
2021/12/09 01:39:06;;;;;;;20.08;6.95;;;1.80;99.90;;;0.27;100.00;96359.28;5024758;28;20073;-70
2021/12/09 01:41:33;;;;;;;23.67;7.38;;;1.70;99.90;;;0.15;100.00;96360.38;5028405;28;20088;-69
2021/12/09 01:44:00;;;;;;;21.05;7.50;;;1.60;99.90;;;0.20;100.00;96360.28;5012801;28;20140;-71
2021/12/09 01:46:27;;;;;;;21.88;9.23;;;1.50;99.90;;;-0.05;100.00;96354.84;5010954;28;20089;-71
2021/12/09 01:48:54;;;;;;;28.65;10.63;;;1.40;99.90;;;-0.20;100.00;96361.13;5026517;28;20061;-70
2021/12/09 01:51:21;;;;;;;30.33;10.02;;;1.40;99.90;;;-0.10;100.00;96359.22;5031186;28;20518;-71
2021/12/09 01:53:50;;;;;;;30.65;10.13;;;1.30;99.90;;;-0.07;100.00;96357.47;5030889;28;20092;-72
2021/12/09 01:56:26;;;;;;;26.75;8.65;;;1.30;99.90;;;-0.20;100.00;96365.38;5026726;28;20136;-72
2021/12/09 01:59:02;;;;;;;41.63;11.55;;;1.20;99.90;;;-0.34;100.00;96361.38;5013517;28;20076;-69
2021/12/09 02:01:31;;;;;;;35.08;11.50;;;1.20;99.90;;;-0.42;100.00;96365.78;5029853;28;20140;-69
2021/12/09 02:04:01;;;;;;;25.10;10.07;;;1.10;99.90;;;-0.39;100.00;96358.06;5030663;28;20049;-68
2021/12/09 02:06:29;;;;;;;21.85;8.27;;;1.10;99.90;;;-0.19;100.00;96357.69;5024650;28;20490;-70
2021/12/09 02:08:56;;;;;;;19.00;7.60;;;1.00;99.90;;;-0.08;100.00;96357.47;5029668;28;20577;-69
2021/12/09 02:11:24;;;;;;;14.57;6.88;;;1.00;99.90;;;-0.01;100.00;96357.31;5021265;28;20132;-70
2021/12/09 02:13:55;;;;;;;16.90;7.03;;;1.00;99.90;;;-0.01;100.00;96362.41;5016534;28;20045;-68
2021/12/09 02:16:24;;;;;;;18.55;8.02;;;1.00;99.90;;;-0.04;100.00;96351.47;5046019;28;20088;-69
2021/12/09 02:18:51;;;;;;;31.85;12.02;;;1.00;99.90;;;-0.09;100.00;96356.66;5021649;28;20421;-70
2021/12/09 02:21:28;;;;;;;37.40;12.40;;;0.90;99.90;;;-0.38;100.00;96361.47;5022087;28;20584;-70
2021/12/09 02:24:00;;;;;;;31.73;11.85;;;0.90;99.90;;;-0.47;100.00;96365.03;5011473;28;20166;-67
2021/12/09 02:26:34;;;;;;;42.05;15.02;;;0.90;99.90;;;-0.65;100.00;96364.50;5016618;28;20144;-69
2021/12/09 02:29:10;;;;;;;36.92;13.65;;;0.80;99.90;;;-0.64;100.00;96355.13;5017610;28;20053;-70
2021/12/09 02:31:39;;;;;;;21.08;8.52;;;0.80;99.90;;;-0.34;100.00;96363.94;5026064;28;20467;-69
2021/12/09 02:34:08;;;;;;;25.55;10.35;;;0.80;99.90;;;-0.19;100.00;96352.59;5022034;28;20076;-69
2021/12/09 02:36:39;;;;;;;19.67;9.50;;;0.90;99.90;;;-0.17;100.00;96360.22;5024627;28;20119;-69
2021/12/09 02:39:12;;;;;;;27.70;10.73;;;0.90;99.90;;;-0.49;100.00;96365.06;5013103;28;20508;-70
2021/12/09 02:41:41;;;;;;;47.03;14.45;;;0.90;99.90;;;-0.56;100.00;96370.31;4997269;28;20137;-69
2021/12/09 02:44:13;;;;;;;148.10;25.17;;;0.80;99.90;;;-0.73;100.00;96366.34;5027415;28;20068;-69
2021/12/09 02:46:40;;;;;;;84.10;15.00;;;0.80;99.90;;;-0.66;100.00;96369.63;5016812;28;20100;-69
2021/12/09 02:49:18;;;;;;;89.70;14.38;;;0.80;99.90;;;-0.35;100.00;96375.00;5025724;28;20221;-71
2021/12/09 02:51:47;;;;;;;103.25;14.05;;;0.80;99.90;;;-0.28;100.00;96375.72;5015345;28;20060;-72
2021/12/09 02:54:17;;;;;;;75.03;13.65;;;0.90;99.90;;;-0.14;100.00;96381.38;5015023;28;20103;-72
2021/12/09 02:56:48;;;;;;;118.40;15.07;;;0.90;99.90;;;-0.11;100.00;96372.84;5014757;28;20129;-72
2021/12/09 02:59:15;;;;;;;460.13;36.33;;;1.00;99.90;;;-0.18;100.00;96382.34;5040257;28;20132;-71
2021/12/09 03:01:57;;;;;;;176.73;15.68;;;1.10;99.90;;;-0.02;100.00;96368.41;5030145;28;20053;-71
2021/12/09 03:04:39;;;;;;;93.82;20.73;;;1.10;99.90;;;0.10;100.00;96363.94;5027762;28;20049;-71
2021/12/09 03:07:27;;;;;;;79.57;18.25;;;1.20;99.90;;;0.14;100.00;96370.66;5015188;28;20493;-72
2021/12/09 03:10:00;;;;;;;77.38;22.60;;;1.30;99.90;;;0.10;100.00;96374.13;5017617;28;20462;-71
2021/12/09 03:12:39;;;;;;;72.15;22.58;;;1.30;99.90;;;0.22;100.00;96373.88;5031581;28;20049;-71
2021/12/09 03:15:07;;;;;;;41.55;18.17;;;1.40;99.90;;;0.33;100.00;96382.13;5048189;28;20056;-71
2021/12/09 03:17:37;;;;;;;34.92;13.70;;;1.50;99.90;;;0.38;100.00;96380.31;5039736;28;20088;-71
2021/12/09 03:20:08;;;;;;;41.13;15.70;;;1.50;99.90;;;0.44;100.00;96381.91;5025701;28;20180;-71
2021/12/09 03:22:37;;;;;;;39.05;15.15;;;1.60;99.90;;;0.45;100.00;96388.69;5028049;28;20046;-72
2021/12/09 03:25:08;;;;;;;40.10;16.73;;;1.70;99.90;;;0.50;100.00;96398.78;5027372;28;20302;-71
2021/12/09 03:27:36;;;;;;;35.25;15.05;;;1.80;99.90;;;0.46;100.00;96405.69;5033624;28;20128;-72
2021/12/09 03:30:07;;;;;;;34.45;14.75;;;1.80;99.90;;;0.45;100.00;96398.88;5010742;28;20084;-71
2021/12/09 03:32:34;;;;;;;49.50;18.15;;;1.90;99.90;;;0.57;100.00;96408.00;5010771;28;20513;-71
2021/12/09 03:35:01;;;;;;;52.65;18.15;;;1.90;99.90;;;0.51;100.00;96408.16;5011082;28;20498;-71
2021/12/09 03:37:28;;;;;;;41.00;14.82;;;1.90;99.90;;;0.58;100.00;96415.63;5015825;28;20144;-71
2021/12/09 03:39:56;;;;;;;51.20;18.08;;;1.90;99.90;;;0.51;100.00;96419.19;5028959;28;20046;-71
2021/12/09 03:42:30;;;;;;;34.65;17.27;;;2.00;99.90;;;0.72;100.00;96432.38;5027181;28;20128;-71
2021/12/09 03:44:59;;;;;;;30.77;13.93;;;2.00;99.90;;;0.79;100.00;96427.06;5011453;28;20548;-70
2021/12/09 03:47:29;;;;;;;42.25;17.98;;;2.00;99.90;;;0.67;100.00;96432.47;5028083;28;20128;-71
2021/12/09 03:49:58;;;;;;;38.97;14.32;;;2.00;99.90;;;0.78;100.00;96435.63;5023390;28;20057;-71
2021/12/09 03:52:26;;;;;;;39.50;16.23;;;1.90;99.90;;;0.79;100.00;96444.97;5019713;28;20124;-71
2021/12/09 03:54:53;;;;;;;32.25;14.95;;;1.90;99.90;;;0.98;100.00;96449.66;5027599;28;20121;-71
2021/12/09 03:57:21;;;;;;;40.70;17.02;;;1.90;99.90;;;0.86;100.00;96450.78;5029756;28;20128;-71
2021/12/09 03:59:48;;;;;;;26.80;14.50;;;2.00;99.90;;;0.98;100.00;96447.97;5027517;28;20052;-71
2021/12/09 04:02:16;;;;;;;28.42;13.05;;;2.00;99.90;;;1.01;100.00;96442.78;5029081;28;20577;-71
2021/12/09 04:04:43;;;;;;;30.73;14.13;;;2.10;99.90;;;1.02;100.00;96447.00;5016735;28;20049;-71
2021/12/09 04:07:11;;;;;;;37.85;13.63;;;2.10;99.90;;;1.00;100.00;96456.44;5021642;28;20148;-71
2021/12/09 04:09:38;;;;;;;28.52;13.30;;;2.20;99.90;;;1.10;100.00;96459.63;5025649;28;20116;-71
2021/12/09 04:12:08;;;;;;;34.85;14.73;;;2.20;99.90;;;1.03;100.00;96465.75;5024066;28;20081;-71
2021/12/09 04:14:36;;;;;;;36.17;15.40;;;2.20;99.90;;;1.01;100.00;96458.09;5018247;28;20098;-71
2021/12/09 04:17:04;;;;;;;40.38;17.77;;;2.20;99.90;;;0.98;100.00;96452.22;5047996;28;20145;-71
2021/12/09 04:19:31;;;;;;;35.28;16.92;;;2.20;99.90;;;0.87;100.00;96457.59;5021414;28;20095;-71
2021/12/09 04:21:59;;;;;;;40.60;15.68;;;2.20;99.90;;;0.89;100.00;96458.38;5029499;28;20421;-71
2021/12/09 04:24:25;;;;;;;32.50;15.38;;;2.20;99.90;;;0.84;100.00;96457.63;5027670;28;20521;-70
2021/12/09 04:26:53;;;;;;;40.78;16.42;;;2.20;99.90;;;0.80;100.00;96459.44;5020488;28;20116;-71
2021/12/09 04:29:20;;;;;;;32.05;15.32;;;2.20;99.90;;;0.87;100.00;96460.13;5014796;28;20525;-71
2021/12/09 04:31:48;;;;;;;37.95;15.98;;;2.20;99.90;;;0.82;100.00;96467.91;5027988;28;20085;-71
2021/12/09 04:34:16;;;;;;;33.97;15.35;;;2.10;99.90;;;0.87;100.00;96482.25;5026858;28;20092;-71
2021/12/09 04:36:44;;;;;;;38.92;14.70;;;2.20;99.90;;;0.89;100.00;96475.41;5023924;28;20041;-71
2021/12/09 04:39:11;;;;;;;27.77;12.80;;;2.20;99.90;;;0.86;100.00;96481.44;5018515;28;20141;-71
2021/12/09 04:41:38;;;;;;;33.38;13.73;;;2.20;99.90;;;1.03;100.00;96473.41;5034407;28;20137;-71
2021/12/09 04:44:06;;;;;;;20.90;10.48;;;2.20;99.90;;;1.00;100.00;96470.91;5029252;28;20133;-72
2021/12/09 04:46:34;;;;;;;23.33;10.90;;;2.20;99.90;;;1.01;100.00;96465.78;5033674;28;20136;-70
2021/12/09 04:49:01;;;;;;;25.35;11.70;;;2.10;99.90;;;0.92;100.00;96471.09;5031352;28;20136;-71
2021/12/09 04:51:28;;;;;;;22.38;10.00;;;2.10;99.90;;;1.04;100.00;96463.13;5014434;28;20085;-71
2021/12/09 04:53:56;;;;;;;27.05;11.68;;;2.10;99.90;;;0.98;100.00;96476.06;5010800;28;20459;-71
2021/12/09 04:56:22;;;;;;;34.50;14.00;;;2.20;99.90;;;0.89;100.00;96468.63;5029960;28;20073;-72
2021/12/09 04:58:50;;;;;;;31.02;12.57;;;2.20;99.90;;;0.97;100.00;96466.72;5030505;28;20132;-70
2021/12/09 05:01:19;;;;;;;27.50;12.45;;;2.20;99.90;;;1.05;100.00;96464.00;5028685;28;20085;-71
2021/12/09 05:03:48;;;;;;;35.08;13.63;;;2.20;99.90;;;0.88;100.00;96478.84;5025867;28;20049;-71
2021/12/09 05:06:17;;;;;;;34.38;14.13;;;2.20;99.90;;;0.82;100.00;96475.56;5019491;28;20129;-70
2021/12/09 05:08:48;;;;;;;33.72;13.50;;;2.30;99.90;;;0.91;100.00;96474.50;5028453;28;20172;-71
2021/12/09 05:11:29;;;;;;;34.90;15.32;;;2.30;99.90;;;1.02;100.00;96467.44;5030496;28;20413;-70
2021/12/09 05:13:58;;;;;;;35.10;13.70;;;2.30;99.90;;;0.97;100.00;96463.31;5022572;28;20095;-71
2021/12/09 05:16:25;;;;;;;36.25;13.98;;;2.20;99.90;;;0.86;100.00;96476.31;5026478;28;20520;-71
2021/12/09 05:18:59;;;;;;;33.00;12.77;;;2.20;99.90;;;0.81;100.00;96473.88;5028156;28;20049;-70
2021/12/09 05:21:37;;;;;;;29.65;11.10;;;2.20;99.90;;;0.86;100.00;96478.03;5031307;28;20073;-71
2021/12/09 05:24:07;;;;;;;28.17;11.32;;;2.20;99.90;;;0.79;100.00;96478.16;5029940;28;20049;-71
2021/12/09 05:26:42;;;;;;;36.95;14.10;;;2.20;99.90;;;0.90;100.00;96482.22;5029795;28;20132;-71
2021/12/09 05:29:09;;;;;;;38.78;13.32;;;2.20;99.90;;;0.88;100.00;96483.97;5032906;28;20490;-70
2021/12/09 05:34:22;;;;;;;31.67;13.07;;;2.20;99.90;;;1.03;100.00;96479.34;5028396;28;20063;-71
2021/12/09 05:36:49;;;;;;;30.88;12.57;;;2.20;99.90;;;0.91;100.00;96474.50;5024756;28;20124;-72
2021/12/09 05:39:17;;;;;;;35.95;14.77;;;2.20;99.90;;;0.88;100.00;96473.75;5030642;28;20080;-72
2021/12/09 05:41:46;;;;;;;42.72;17.80;;;2.30;99.90;;;0.99;100.00;96482.84;5041421;28;20041;-71
2021/12/09 05:44:14;;;;;;;31.70;13.55;;;2.30;99.90;;;0.97;100.00;96487.16;5022620;28;20042;-71
2021/12/09 05:46:46;;;;;;;42.83;15.55;;;2.30;99.90;;;1.02;100.00;96498.09;5015659;28;20074;-71
2021/12/09 05:49:15;;;;;;;30.27;12.40;;;2.30;99.90;;;0.90;100.00;96498.38;5035292;28;20061;-71
2021/12/09 05:51:44;;;;;;;30.15;12.70;;;2.30;99.90;;;1.01;100.00;96493.88;5027278;28;20537;-71
2021/12/09 05:54:12;;;;;;;26.15;10.70;;;2.30;99.90;;;1.01;100.00;96493.88;5025904;28;20143;-71
2021/12/09 05:56:39;;;;;;;33.22;12.90;;;2.20;99.90;;;1.10;100.00;96489.44;5021759;28;20124;-71
2021/12/09 05:59:07;;;;;;;32.63;14.63;;;2.30;99.90;;;1.12;100.00;96496.19;5023272;28;20124;-70
2021/12/09 06:01:36;;;;;;;26.45;11.85;;;2.30;99.90;;;1.05;100.00;96502.31;5037360;28;21559;-71
2021/12/09 06:04:04;;;;;;;33.63;16.30;;;2.30;99.90;;;1.02;100.00;96490.44;5019176;28;20183;-71
2021/12/09 06:06:33;;;;;;;34.95;14.55;;;2.30;99.90;;;0.99;100.00;96490.50;5020076;28;20053;-71
2021/12/09 06:09:00;;;;;;;26.92;12.45;;;2.30;99.90;;;0.98;100.00;96487.97;5023558;28;20140;-71
2021/12/09 06:11:27;;;;;;;32.80;11.93;;;2.30;99.90;;;0.94;100.00;96491.50;5033196;28;20100;-71
2021/12/09 06:13:54;;;;;;;34.42;14.27;;;2.30;99.90;;;0.97;100.00;96499.09;5016675;28;20077;-71
2021/12/09 06:16:24;;;;;;;25.25;12.57;;;2.30;99.90;;;0.97;100.00;96496.53;5024579;28;20081;-72
2021/12/09 06:18:52;;;;;;;29.25;13.82;;;2.30;99.90;;;0.96;100.00;96490.59;5019821;28;20382;-71
2021/12/09 06:21:19;;;;;;;41.58;16.33;;;2.30;99.90;;;1.00;100.00;96488.78;5020637;28;20556;-70
2021/12/09 06:23:46;;;;;;;34.47;14.95;;;2.30;99.90;;;1.13;100.00;96494.47;5016390;28;20184;-71
2021/12/09 06:26:14;;;;;;;35.30;14.90;;;2.30;99.90;;;1.00;100.00;96486.22;5020977;28;20126;-72
2021/12/09 06:28:41;;;;;;;34.80;17.08;;;2.30;99.90;;;1.13;100.00;96502.16;5026255;28;20077;-70
2021/12/09 06:31:09;;;;;;;32.58;16.67;;;2.30;99.90;;;0.96;100.00;96508.47;5025733;28;20097;-71
2021/12/09 06:33:37;;;;;;;44.03;19.05;;;2.30;99.90;;;0.94;100.00;96505.09;5040579;28;20046;-70
2021/12/09 06:36:05;;;;;;;32.80;16.30;;;2.30;99.90;;;1.10;100.00;96505.63;5029703;28;20430;-70
2021/12/09 06:38:33;;;;;;;28.90;12.52;;;2.30;99.90;;;0.87;100.00;96513.78;5025507;28;20042;-70
2021/12/09 06:41:01;;;;;;;40.38;18.13;;;2.30;99.90;;;0.89;100.00;96506.94;5033484;28;20042;-71
2021/12/09 06:43:29;;;;;;;55.03;23.80;;;2.30;99.90;;;0.83;100.00;96518.09;5025065;28;20076;-70
2021/12/09 06:45:58;;;;;;;38.88;17.52;;;2.20;99.90;;;0.78;100.00;96525.03;5030506;28;20129;-71
2021/12/09 06:48:25;;;;;;;36.97;16.90;;;2.20;99.90;;;0.89;100.00;96521.41;5010911;28;20137;-70
2021/12/09 06:50:55;;;;;;;42.13;17.15;;;2.20;99.90;;;0.85;100.00;96520.63;5017501;28;20049;-70
2021/12/09 06:53:22;;;;;;;49.42;19.35;;;2.20;99.90;;;0.81;100.00;96531.78;5013845;28;20577;-70
2021/12/09 06:55:49;;;;;;;37.40;16.52;;;2.30;99.90;;;0.94;100.00;96522.16;5025238;28;20128;-70
2021/12/09 06:58:18;;;;;;;36.83;16.55;;;2.20;99.90;;;1.01;100.00;96524.53;5026764;28;20073;-70
2021/12/09 07:00:46;;;;;;;45.58;20.88;;;2.20;99.90;;;0.92;100.00;96529.84;5021478;28;20077;-70
2021/12/09 07:03:16;;;;;;;36.58;15.82;;;2.20;99.90;;;0.96;100.00;96548.53;5024919;28;20399;-70
2021/12/09 07:05:45;;;;;;;37.75;17.42;;;2.20;99.90;;;0.87;100.00;96552.09;5021424;28;20578;-70
2021/12/09 07:08:12;;;;;;;37.72;17.42;;;2.20;99.90;;;0.89;100.00;96544.38;5028808;28;20494;-71
2021/12/09 07:10:40;;;;;;;40.38;16.63;;;2.20;99.90;;;0.91;100.00;96545.19;5010973;28;20077;-69
2021/12/09 07:13:07;;;;;;;31.13;13.00;;;2.20;99.90;;;0.81;100.00;96560.72;5009105;28;20382;-71
2021/12/09 07:15:34;;;;;;;38.30;15.88;;;2.10;99.90;;;0.79;100.00;96567.56;5027245;28;20053;-71
2021/12/09 07:18:02;;;;;;;42.28;20.58;;;2.20;99.90;;;0.76;100.00;96570.19;5011644;28;20107;-71
2021/12/09 07:20:31;;;;;;;39.92;16.65;;;2.20;99.90;;;0.87;100.00;96576.78;5025638;28;20481;-71
2021/12/09 07:22:59;;;;;;;50.78;19.77;;;2.20;99.90;;;0.74;100.00;96577.03;5010472;28;20169;-70
2021/12/09 07:25:27;;;;;;;42.75;17.25;;;2.20;99.90;;;0.77;100.00;96581.25;5020532;28;20144;-70
2021/12/09 07:27:58;;;;;;;38.80;17.58;;;2.10;99.90;;;0.67;100.00;96590.81;5037992;28;20091;-70
2021/12/09 07:30:27;;;;;;;37.90;16.65;;;2.10;99.90;;;0.59;100.00;96590.97;5017924;28;20472;-71
2021/12/09 07:32:55;;;;;;;72.88;26.95;;;2.10;99.90;;;0.54;100.00;96595.31;5037422;28;20077;-70
2021/12/09 07:35:24;;;;;;;33.78;15.50;;;2.10;99.90;;;0.63;100.00;96600.22;5037353;28;20081;-70
2021/12/09 07:37:52;;;;;;;34.33;14.68;;;2.00;99.90;;;0.63;100.00;96578.97;5027926;28;20056;-70
2021/12/09 07:40:20;;;;;;;32.65;16.10;;;1.90;99.90;;;0.58;100.00;96609.69;5017251;28;20478;-70
2021/12/09 07:42:47;;;;;;;57.42;24.67;;;1.90;99.90;;;0.60;100.00;96614.78;5013205;28;20077;-71
2021/12/09 07:45:16;;;;;;;46.97;19.35;;;2.00;99.90;;;0.57;100.00;96612.28;5007224;28;20439;-71
2021/12/09 07:47:45;;;;;;;37.60;16.50;;;2.00;99.90;;;0.60;100.00;96607.13;5013816;28;20084;-70
2021/12/09 07:50:17;;;;;;;29.25;13.07;;;1.90;99.90;;;0.47;100.00;96613.31;5009829;28;20077;-71
2021/12/09 07:52:48;;;;;;;32.45;14.60;;;1.80;99.90;;;0.51;100.00;96618.34;5036150;28;20120;-70
2021/12/09 07:55:17;;;;;;;30.65;13.25;;;1.80;99.90;;;0.49;100.00;96627.75;4993006;28;1245540;-70
2021/12/09 07:57:45;;;;;;;34.22;14.65;;;1.80;99.90;;;0.54;100.00;96623.38;5025479;28;20494;-70
2021/12/09 08:00:22;;;;;;;37.05;14.95;;;1.80;99.90;;;0.53;100.00;96631.94;5025938;28;20128;-70
2021/12/09 08:02:51;;;;;;;39.80;16.75;;;1.80;99.90;;;0.39;100.00;96619.41;5023001;28;20157;-70
2021/12/09 08:05:21;;;;;;;24.95;13.52;;;1.80;99.90;;;0.52;100.00;96637.06;5026212;28;20085;-70
2021/12/09 08:07:52;;;;;;;34.53;16.08;;;1.70;99.90;;;0.45;100.00;96635.47;5027506;28;20077;-71
2021/12/09 08:10:19;;;;;;;48.28;22.08;;;1.80;99.90;;;0.37;100.00;96639.03;5023843;28;20053;-71
2021/12/09 08:12:47;;;;;;;33.55;15.73;;;1.80;99.90;;;0.44;100.00;96641.47;5025097;28;20129;-70
2021/12/09 08:15:33;;;;;;;31.67;15.82;;;1.80;99.90;;;0.53;100.00;96647.25;5010228;28;20097;-70
2021/12/09 08:20:52;;;;;;;47.28;18.92;;;1.80;99.90;;;0.65;100.00;96638.53;5024020;28;20049;-71
2021/12/09 08:23:20;;;;;;;44.67;19.48;;;1.80;99.90;;;0.51;100.00;96641.31;5019032;28;20160;-70
2021/12/09 08:25:48;;;;;;;50.28;19.83;;;1.80;99.90;;;0.58;100.00;96637.78;5018632;28;20080;-71
2021/12/09 08:28:16;;;;;;;39.70;17.60;;;1.80;99.90;;;0.53;100.00;96634.47;5015283;28;20447;-71
2021/12/09 08:30:44;;;;;;;36.42;16.50;;;1.80;99.90;;;0.30;100.00;96624.69;5024045;28;20140;-71
2021/12/09 08:33:21;;;;;;;55.97;20.75;;;1.80;99.90;;;0.46;100.00;96626.94;5032028;28;20075;-70
2021/12/09 08:35:49;;;;;;;62.20;21.73;;;1.80;99.90;;;0.34;100.00;96633.97;5047572;28;20591;-70
2021/12/09 08:38:17;;;;;;;67.25;20.38;;;1.70;99.90;;;0.26;100.00;96620.50;5029880;28;20045;-71
2021/12/09 08:40:45;;;;;;;62.92;21.70;;;1.70;99.90;;;0.33;100.00;96626.34;5030875;28;20499;-71
2021/12/09 08:43:12;;;;;;;76.72;20.95;;;1.70;99.90;;;0.19;100.00;96629.13;5038526;28;20100;-70
2021/12/09 08:45:40;;;;;;;86.78;24.52;;;1.70;99.90;;;0.27;100.00;96626.44;5015310;28;20137;-71
2021/12/09 08:48:08;;;;;;;53.50;21.23;;;1.70;99.90;;;0.48;100.00;96625.22;5043523;28;20497;-71
2021/12/09 08:50:37;;;;;;;78.45;21.70;;;1.70;99.90;;;0.26;100.00;96623.03;5036773;28;20080;-71
2021/12/09 08:53:10;;;;;;;64.70;18.75;;;1.70;99.90;;;0.25;100.00;96630.72;5005599;28;20513;-71
2021/12/09 08:55:38;;;;;;;85.50;22.27;;;1.70;99.90;;;0.31;100.00;96640.84;5020927;28;20073;-71
2021/12/09 08:58:05;;;;;;;87.80;25.02;;;1.60;99.90;;;0.22;100.00;96638.44;5013273;28;20497;-70
2021/12/09 09:00:34;;;;;;;104.75;21.63;;;1.70;99.90;;;0.27;100.00;96647.69;5030544;28;20045;-70
2021/12/09 09:03:03;;;;;;;80.60;24.05;;;1.70;99.90;;;0.27;100.00;96639.19;5032117;28;20458;-70
2021/12/09 09:05:32;;;;;;;52.80;18.35;;;1.70;99.90;;;0.43;100.00;96645.72;5047692;28;20132;-69
2021/12/09 09:08:00;;;;;;;56.67;19.25;;;1.70;99.90;;;0.49;100.00;96642.22;5028180;28;20136;-71
2021/12/09 09:10:30;;;;;;;52.47;19.73;;;1.70;99.90;;;0.48;100.00;96646.50;5020089;28;20116;-70
2021/12/09 09:12:58;;;;;;;57.03;19.45;;;1.70;99.90;;;0.23;100.00;96642.66;5015795;28;20125;-70
2021/12/09 09:15:27;;;;;;;40.28;16.08;;;1.70;99.90;;;0.33;100.00;96659.53;5014581;28;20125;-70
2021/12/09 09:17:54;;;;;;;42.67;18.70;;;1.70;99.90;;;0.36;100.00;96654.34;5021938;28;20065;-69
2021/12/09 09:20:26;;;;;;;63.65;24.20;;;1.70;99.90;;;0.43;100.00;96660.19;5022489;28;20057;-70
2021/12/09 09:22:53;;;;;;;63.30;20.50;;;1.80;99.90;;;0.47;100.00;96657.56;5032000;28;20447;-70
2021/12/09 09:25:29;;;;;;;44.45;19.17;;;1.80;99.90;;;0.48;100.00;96661.81;5012966;28;20140;-71
2021/12/09 09:28:01;;;;;;;35.15;16.27;;;1.80;99.90;;;0.67;100.00;96667.44;5023761;28;20347;-70
2021/12/09 09:30:36;;;;;;;46.25;18.95;;;1.90;99.90;;;0.57;100.00;96671.88;5015395;28;20073;-71
2021/12/09 09:33:14;;;;;;;58.67;21.00;;;1.90;99.90;;;0.57;100.00;96673.56;5021331;28;20240;-70
2021/12/09 09:35:43;;;;;;;39.65;16.50;;;2.00;99.90;;;0.72;100.00;96672.47;4996289;28;20449;-71
2021/12/09 09:38:11;;;;;;;47.28;19.58;;;1.90;99.90;;;0.67;100.00;96664.03;5013796;28;20045;-70
2021/12/09 09:41:05;;;;;;;38.55;18.63;;;1.90;99.90;;;0.79;100.00;96667.19;5022271;28;20117;-71
2021/12/09 09:43:57;;;;;;;46.00;18.65;;;1.90;99.90;;;0.68;100.00;96671.66;5013124;28;20073;-71
2021/12/09 09:46:30;;;;;;;40.88;17.13;;;2.00;99.90;;;0.76;100.00;96669.81;5011144;28;20085;-71
2021/12/09 09:49:01;;;;;;;52.17;17.13;;;2.00;99.90;;;0.68;100.00;96669.09;5025582;28;20559;-71
2021/12/09 09:51:30;;;;;;;41.00;19.65;;;2.00;99.90;;;0.73;100.00;96669.88;5011245;28;20115;-70
2021/12/09 09:53:58;;;;;;;34.80;16.73;;;2.00;99.90;;;0.77;100.00;96668.09;5028281;28;20128;-70
2021/12/09 09:56:26;;;;;;;33.55;16.33;;;2.00;99.90;;;0.71;100.00;96673.31;5031533;28;20223;-71
2021/12/09 09:58:58;;;;;;;27.73;13.23;;;2.10;99.90;;;0.82;100.00;96666.28;5039401;28;20072;-70
2021/12/09 10:01:28;;;;;;;36.90;15.07;;;2.10;99.90;;;0.97;100.00;96657.50;5026952;28;20187;-71
2021/12/09 10:04:13;;;;;;;35.30;16.48;;;2.20;99.90;;;0.65;100.00;96666.63;5026826;28;20128;-71
2021/12/09 10:06:44;;;;;;;37.05;18.00;;;2.20;99.90;;;0.54;100.00;96666.78;5020264;28;20485;-71
2021/12/09 10:09:13;;;;;;;37.72;18.05;;;2.30;99.90;;;0.68;100.00;96664.00;5029356;28;20049;-71
2021/12/09 10:11:41;;;;;;;39.47;16.48;;;2.20;99.90;;;0.59;100.00;96671.81;5026969;28;20049;-70
2021/12/09 10:14:17;;;;;;;32.95;13.32;;;2.20;99.90;;;0.76;100.00;96668.97;5022200;28;20115;-71
2021/12/09 10:17:00;;;;;;;40.45;16.60;;;2.20;99.90;;;0.91;100.00;96655.06;5026077;28;20625;-71
2021/12/09 10:19:28;;;;;;;35.78;16.42;;;2.10;99.90;;;0.83;100.00;96660.31;5028012;28;20038;-70
2021/12/09 10:22:16;;;;;;;39.20;16.77;;;2.10;99.90;;;0.76;100.00;96653.66;5026020;28;20057;-70
2021/12/09 10:24:45;;;;;;;49.88;20.27;;;2.10;99.90;;;0.75;100.00;96654.50;5026685;28;20118;-71
2021/12/09 10:27:30;;;;;;;38.00;17.55;;;2.20;99.90;;;0.92;100.00;96661.88;5045760;28;20046;-71
2021/12/09 10:30:10;;;;;;;35.85;17.52;;;2.20;99.90;;;0.83;100.00;96652.66;5028574;28;20103;-70